createdAt,value
2018-02-17T00:00:25.282Z,42.40
2018-02-17T00:01:25.276Z,39.90
2018-02-17T00:02:25.220Z,35.00
2018-02-17T00:03:25.191Z,38.50
2018-02-17T00:04:25.127Z,31.60
2018-02-17T00:05:25.083Z,37.80
2018-02-17T00:06:25.070Z,28.60
2018-02-17T00:07:25.013Z,28.70
2018-02-17T00:08:24.954Z,32.80
2018-02-17T00:09:24.919Z,27.70
2018-02-17T00:10:24.922Z,37.80
2018-02-17T00:11:24.834Z,32.00
2018-02-17T00:12:24.819Z,25.60
2018-02-17T00:13:24.759Z,26.80
2018-02-17T00:14:24.702Z,24.80
2018-02-17T00:15:24.672Z,31.50
2018-02-17T00:16:24.617Z,30.80
2018-02-17T00:17:24.661Z,27.00
2018-02-17T00:18:24.539Z,35.10
2018-02-17T00:19:24.518Z,25.30
2018-02-17T00:20:24.487Z,23.10
2018-02-17T00:21:24.416Z,29.10
2018-02-17T00:22:24.397Z,21.70
2018-02-17T00:23:24.365Z,29.00
2018-02-17T00:24:24.306Z,26.50
2018-02-17T00:25:24.244Z,36.10
2018-02-17T00:26:24.241Z,24.30
2018-02-17T00:27:24.181Z,34.40
2018-02-17T00:28:24.152Z,25.90
2018-02-17T00:29:24.102Z,22.90
2018-02-17T00:30:24.060Z,29.80
2018-02-17T00:31:24.006Z,28.20
2018-02-17T00:32:23.953Z,29.20
2018-02-17T00:33:23.968Z,25.30
2018-02-17T00:34:23.882Z,28.20
2018-02-17T00:35:23.846Z,25.40
2018-02-17T00:36:23.808Z,22.90
2018-02-17T00:37:23.760Z,30.20
2018-02-17T00:38:23.721Z,27.00
2018-02-17T00:39:23.668Z,25.50
2018-02-17T00:40:23.642Z,29.60
2018-02-17T00:41:23.598Z,27.40
2018-02-17T00:42:23.548Z,32.50
2018-02-17T00:43:23.510Z,29.10
2018-02-17T00:44:23.467Z,25.60
2018-02-17T00:45:23.420Z,29.20
2018-02-17T00:46:23.395Z,33.00
2018-02-17T00:47:23.335Z,33.20
2018-02-17T00:48:23.300Z,28.50
2018-02-17T00:49:23.259Z,30.90
2018-02-17T00:50:23.224Z,29.90
2018-02-17T00:51:23.173Z,26.40
2018-02-17T00:52:23.169Z,26.10
2018-02-17T00:53:23.105Z,32.20
2018-02-17T00:54:23.058Z,32.40
2018-02-17T00:55:23.017Z,29.40
2018-02-17T00:56:23.006Z,30.00
2018-02-17T00:57:22.947Z,28.90
2018-02-17T00:58:22.881Z,34.70
2018-02-17T00:59:22.849Z,27.90
2018-02-17T01:00:22.797Z,27.70
2018-02-17T01:01:22.774Z,29.30
2018-02-17T01:02:22.719Z,30.00
2018-02-17T01:03:22.725Z,32.30
2018-02-17T01:04:22.635Z,29.40
2018-02-17T01:05:22.590Z,25.80
2018-02-17T01:06:22.576Z,41.00
2018-02-17T01:07:22.514Z,33.30
2018-02-17T01:08:22.505Z,35.80
2018-02-17T01:09:22.444Z,36.20
2018-02-17T01:10:22.382Z,42.70
2018-02-17T01:11:22.898Z,35.10
2018-02-17T01:12:22.311Z,33.50
2018-02-17T01:13:22.258Z,37.30
2018-02-17T01:14:22.218Z,32.90
2018-02-17T01:15:22.173Z,30.30
2018-02-17T01:16:22.216Z,33.30
2018-02-17T01:17:22.098Z,37.70
2018-02-17T01:18:22.085Z,30.90
2018-02-17T01:19:22.052Z,32.20
2018-02-17T01:20:21.985Z,39.90
2018-02-17T01:21:21.977Z,34.30
2018-02-17T01:22:21.890Z,37.50
2018-02-17T01:23:21.860Z,43.60
2018-02-17T01:24:21.800Z,29.30
2018-02-17T01:25:21.778Z,42.90
2018-02-17T01:26:21.750Z,36.90
2018-02-17T01:27:21.685Z,36.20
2018-02-17T01:28:21.637Z,32.50
2018-02-17T01:29:21.626Z,33.80
2018-02-17T01:30:21.554Z,30.90
2018-02-17T01:31:21.538Z,39.50
2018-02-17T01:32:21.466Z,34.90
2018-02-17T01:33:21.428Z,27.60
2018-02-17T01:34:21.396Z,32.10
2018-02-17T01:35:21.359Z,34.80
2018-02-17T01:36:21.302Z,33.10
2018-02-17T01:37:21.261Z,34.60
2018-02-17T01:38:21.228Z,40.20
2018-02-17T01:39:21.200Z,44.20
2018-02-17T01:40:21.158Z,28.60
2018-02-17T01:41:21.131Z,36.40
2018-02-17T01:42:21.084Z,32.20
2018-02-17T01:43:21.045Z,41.10
2018-02-17T01:44:20.992Z,40.60
2018-02-17T01:45:20.938Z,39.60
2018-02-17T01:46:20.901Z,35.70
2018-02-17T01:47:20.849Z,35.10
2018-02-17T01:48:20.818Z,39.90
2018-02-17T01:49:20.776Z,34.60
2018-02-17T01:50:20.728Z,36.20
2018-02-17T01:51:20.693Z,34.70
2018-02-17T01:52:20.639Z,31.70
2018-02-17T01:53:20.591Z,32.30
2018-02-17T01:54:20.556Z,36.20
2018-02-17T01:55:20.510Z,35.20
2018-02-17T01:56:20.525Z,30.50
2018-02-17T01:57:20.429Z,28.60
2018-02-17T01:58:20.390Z,34.80
2018-02-17T01:59:20.340Z,40.30
2018-02-17T02:00:20.302Z,38.00
2018-02-17T02:01:20.257Z,31.20
2018-02-17T02:02:20.227Z,36.40
2018-02-17T02:03:20.183Z,34.40
2018-02-17T02:04:20.150Z,25.70
2018-02-17T02:05:20.122Z,33.40
2018-02-17T02:06:20.064Z,35.50
2018-02-17T02:07:20.009Z,35.80
2018-02-17T02:08:19.981Z,36.90
2018-02-17T02:09:20.053Z,31.00
2018-02-17T02:10:19.917Z,38.00
2018-02-17T02:11:19.863Z,36.80
2018-02-17T02:12:19.840Z,36.30
2018-02-17T02:13:19.770Z,31.40
2018-02-17T02:14:19.724Z,33.10
2018-02-17T02:15:19.685Z,36.10
2018-02-17T02:16:19.634Z,32.30
2018-02-17T02:17:19.591Z,32.90
2018-02-17T02:18:19.560Z,30.90
2018-02-17T02:19:19.553Z,31.60
2018-02-17T02:20:19.474Z,36.10
2018-02-17T02:21:19.434Z,33.40
2018-02-17T02:22:19.382Z,32.20
2018-02-17T02:23:19.337Z,37.30
2018-02-17T02:24:19.313Z,34.30
2018-02-17T02:25:19.264Z,33.40
2018-02-17T02:26:19.255Z,34.20
2018-02-17T02:27:19.168Z,41.60
2018-02-17T02:28:19.138Z,41.40
2018-02-17T02:29:19.088Z,40.10
2018-02-17T02:30:19.071Z,34.10
2018-02-17T02:31:19.003Z,28.70
2018-02-17T02:32:18.963Z,32.50
2018-02-17T02:33:18.924Z,34.70
2018-02-17T02:34:18.908Z,36.60
2018-02-17T02:35:18.840Z,39.20
2018-02-17T02:36:18.801Z,34.30
2018-02-17T02:37:18.767Z,41.80
2018-02-17T02:38:18.715Z,36.90
2018-02-17T02:39:18.682Z,42.40
2018-02-17T02:40:18.660Z,37.30
2018-02-17T02:41:18.617Z,34.10
2018-02-17T02:42:18.579Z,32.80
2018-02-17T02:43:18.517Z,32.30
2018-02-17T02:44:18.486Z,39.20
2018-02-17T02:45:18.420Z,37.30
2018-02-17T02:46:18.389Z,35.20
2018-02-17T02:47:18.343Z,39.80
2018-02-17T02:48:18.290Z,44.80
2018-02-17T02:49:18.279Z,35.30
2018-02-17T02:50:18.223Z,39.30
2018-02-17T02:51:18.189Z,31.80
2018-02-17T02:52:18.145Z,34.40
2018-02-17T02:53:18.083Z,39.50
2018-02-17T02:54:18.042Z,34.70
2018-02-17T02:55:18.020Z,34.40
2018-02-17T02:56:17.972Z,37.90
2018-02-17T02:57:17.914Z,34.30
2018-02-17T02:58:18.015Z,38.60
2018-02-17T02:59:17.836Z,34.70
2018-02-17T03:00:17.800Z,37.10
2018-02-17T03:01:17.757Z,36.60
2018-02-17T03:02:17.751Z,43.40
2018-02-17T03:03:17.670Z,42.60
2018-02-17T03:04:17.645Z,35.40
2018-02-17T03:05:17.624Z,39.00
2018-02-17T03:06:17.539Z,38.20
2018-02-17T03:07:17.528Z,37.30
2018-02-17T03:08:17.455Z,36.80
2018-02-17T03:09:17.421Z,39.10
2018-02-17T03:10:17.371Z,38.00
2018-02-17T03:11:17.327Z,38.00
2018-02-17T03:12:17.294Z,37.30
2018-02-17T03:13:17.244Z,38.80
2018-02-17T03:14:17.222Z,30.70
2018-02-17T03:15:17.172Z,41.70
2018-02-17T03:16:17.174Z,37.90
2018-02-17T03:17:17.084Z,32.90
2018-02-17T03:18:17.051Z,43.10
2018-02-17T03:19:17.001Z,34.10
2018-02-17T03:20:16.962Z,36.40
2018-02-17T03:21:16.945Z,37.30
2018-02-17T03:22:16.872Z,41.40
2018-02-17T03:23:16.836Z,45.20
2018-02-17T03:24:16.787Z,32.50
2018-02-17T03:25:16.749Z,39.20
2018-02-17T03:26:16.723Z,36.50
2018-02-17T03:27:16.670Z,41.10
2018-02-17T03:28:16.617Z,39.20
2018-02-17T03:29:16.626Z,34.60
2018-02-17T03:30:16.534Z,38.30
2018-02-17T03:31:16.514Z,39.20
2018-02-17T03:32:16.481Z,38.70
2018-02-17T03:33:16.414Z,41.30
2018-02-17T03:34:16.371Z,37.90
2018-02-17T03:35:16.323Z,36.40
2018-02-17T03:36:16.281Z,34.70
2018-02-17T03:37:16.258Z,33.00
2018-02-17T03:38:16.210Z,41.70
2018-02-17T03:39:16.174Z,42.90
2018-02-17T03:40:16.117Z,46.30
2018-02-17T03:41:16.078Z,44.40
2018-02-17T03:42:16.060Z,39.60
2018-02-17T03:43:15.993Z,42.20
2018-02-17T03:44:15.956Z,34.00
2018-02-17T03:45:15.910Z,44.30
2018-02-17T03:46:15.863Z,44.30
2018-02-17T03:47:15.874Z,42.20
2018-02-17T03:48:15.840Z,44.20
2018-02-17T03:49:15.762Z,44.50
2018-02-17T03:50:15.719Z,41.10
2018-02-17T03:51:15.650Z,46.10
2018-02-17T03:52:15.609Z,42.80
2018-02-17T03:53:15.579Z,43.30
2018-02-17T03:54:15.539Z,42.40
2018-02-17T03:55:15.494Z,43.70
2018-02-17T03:56:15.484Z,43.70
2018-02-17T03:57:15.410Z,41.20
2018-02-17T03:58:15.386Z,38.30
2018-02-17T03:59:15.342Z,48.40
2018-02-17T04:00:15.291Z,40.50
2018-02-17T04:01:15.262Z,42.90
2018-02-17T04:02:15.228Z,41.40
2018-02-17T04:03:15.162Z,42.50
2018-02-17T04:04:15.105Z,44.80
2018-02-17T04:05:15.069Z,54.10
2018-02-17T04:06:15.057Z,46.30
2018-02-17T04:07:14.986Z,46.20
2018-02-17T04:08:14.940Z,51.40
2018-02-17T04:09:14.937Z,40.00
2018-02-17T04:10:14.881Z,48.00
2018-02-17T04:11:14.811Z,47.90
2018-02-17T04:12:14.791Z,46.20
2018-02-17T04:13:14.741Z,49.20
2018-02-17T04:14:14.683Z,38.00
2018-02-17T04:15:14.646Z,45.30
2018-02-17T04:16:14.604Z,41.50
2018-02-17T04:17:14.586Z,46.40
2018-02-17T04:18:14.548Z,52.50
2018-02-17T04:19:14.525Z,52.50
2018-02-17T04:20:14.434Z,42.80
2018-02-17T04:21:14.409Z,47.60
2018-02-17T04:22:14.359Z,46.20
2018-02-17T04:23:14.356Z,47.30
2018-02-17T04:24:14.262Z,53.90
2018-02-17T04:25:14.247Z,49.00
2018-02-17T04:26:14.239Z,55.50
2018-02-17T04:27:14.155Z,46.60
2018-02-17T04:28:14.116Z,49.80
2018-02-17T04:29:14.103Z,50.90
2018-02-17T04:30:14.043Z,46.20
2018-02-17T04:31:13.990Z,48.50
2018-02-17T04:32:13.928Z,44.80
2018-02-17T04:33:13.901Z,45.10
2018-02-17T04:34:13.864Z,50.30
2018-02-17T04:35:13.816Z,45.20
2018-02-17T04:36:13.767Z,46.50
2018-02-17T04:37:13.727Z,49.80
2018-02-17T04:38:13.702Z,42.80
2018-02-17T04:39:13.664Z,39.50
2018-02-17T04:40:13.609Z,42.80
2018-02-17T04:41:13.581Z,47.20
2018-02-17T04:42:13.516Z,45.20
2018-02-17T04:43:13.508Z,46.60
2018-02-17T04:44:13.429Z,39.20
2018-02-17T04:45:13.423Z,44.60
2018-02-17T04:46:13.371Z,41.00
2018-02-17T04:47:13.303Z,43.00
2018-02-17T04:48:13.300Z,41.80
2018-02-17T04:49:13.224Z,40.90
2018-02-17T04:50:13.179Z,43.30
2018-02-17T04:51:13.150Z,37.00
2018-02-17T04:52:13.117Z,45.30
2018-02-17T04:53:13.054Z,43.60
2018-02-17T04:54:13.014Z,44.10
2018-02-17T04:55:12.983Z,36.10
2018-02-17T04:56:12.970Z,39.50
2018-02-17T04:57:12.886Z,45.10
2018-02-17T04:58:12.849Z,43.80
2018-02-17T04:59:12.839Z,38.70
2018-02-17T05:00:12.784Z,49.40
2018-02-17T05:01:12.720Z,41.10
2018-02-17T05:02:12.679Z,40.30
2018-02-17T05:03:12.639Z,46.30
2018-02-17T05:04:12.597Z,51.90
2018-02-17T05:05:12.553Z,47.20
2018-02-17T05:06:12.521Z,51.00
2018-02-17T05:07:12.507Z,44.20
2018-02-17T05:08:12.448Z,45.70
2018-02-17T05:09:12.384Z,43.20
2018-02-17T05:10:12.876Z,47.00
2018-02-17T05:11:12.875Z,43.90
2018-02-17T05:12:12.315Z,43.50
2018-02-17T05:13:12.878Z,42.60
2018-02-17T05:14:12.182Z,40.30
2018-02-17T05:15:12.136Z,41.90
2018-02-17T05:16:12.097Z,33.30
2018-02-17T05:17:12.065Z,39.50
2018-02-17T05:18:12.023Z,38.10
2018-02-17T05:19:12.003Z,35.60
2018-02-17T05:20:11.959Z,34.20
2018-02-17T05:21:11.884Z,37.10
2018-02-17T05:22:11.869Z,32.30
2018-02-17T05:23:11.797Z,39.90
2018-02-17T05:24:11.813Z,35.40
2018-02-17T05:25:11.714Z,33.40
2018-02-17T05:26:11.693Z,34.10
2018-02-17T05:27:11.638Z,37.70
2018-02-17T05:28:11.594Z,33.00
2018-02-17T05:29:11.557Z,34.40
2018-02-17T05:30:11.529Z,33.00
2018-02-17T05:31:11.463Z,30.40
2018-02-17T05:32:11.435Z,40.40
2018-02-17T05:33:11.423Z,35.00
2018-02-17T05:34:11.358Z,39.20
2018-02-17T05:35:11.441Z,36.60
2018-02-17T05:36:11.275Z,34.90
2018-02-17T05:37:11.215Z,31.30
2018-02-17T05:38:11.193Z,30.80
2018-02-17T05:39:11.139Z,34.60
2018-02-17T05:40:11.118Z,29.30
2018-02-17T05:41:11.086Z,37.10
2018-02-17T05:42:11.008Z,31.50
2018-02-17T05:43:10.971Z,31.00
2018-02-17T05:44:10.945Z,33.20
2018-02-17T05:45:10.880Z,35.70
2018-02-17T05:46:10.838Z,29.90
2018-02-17T05:47:10.799Z,33.90
2018-02-17T05:48:10.788Z,34.10
2018-02-17T05:49:10.727Z,37.20
2018-02-17T05:50:10.702Z,33.20
2018-02-17T05:51:10.645Z,32.20
2018-02-17T05:52:10.587Z,34.50
2018-02-17T05:53:10.553Z,34.50
2018-02-17T05:54:10.507Z,35.20
2018-02-17T05:55:10.476Z,31.40
2018-02-17T05:56:10.502Z,35.30
2018-02-17T05:57:10.418Z,35.60
2018-02-17T05:58:10.372Z,35.60
2018-02-17T05:59:10.766Z,37.60
2018-02-17T06:00:10.280Z,31.60
2018-02-17T06:01:10.251Z,32.30
2018-02-17T06:02:10.204Z,29.60
2018-02-17T06:03:10.147Z,28.10
2018-02-17T06:04:10.117Z,35.00
2018-02-17T06:05:10.053Z,31.90
2018-02-17T06:06:10.005Z,32.00
2018-02-17T06:07:09.971Z,32.80
2018-02-17T06:08:09.929Z,31.70
2018-02-17T06:09:09.878Z,31.90
2018-02-17T06:10:09.836Z,29.90
2018-02-17T06:11:09.795Z,36.50
2018-02-17T06:12:09.771Z,35.20
2018-02-17T06:13:09.721Z,29.30
2018-02-17T06:14:09.693Z,34.60
2018-02-17T06:15:09.628Z,43.50
2018-02-17T06:16:09.588Z,34.70
2018-02-17T06:17:09.584Z,30.70
2018-02-17T06:18:09.503Z,38.60
2018-02-17T06:19:09.461Z,34.70
2018-02-17T06:20:09.420Z,35.70
2018-02-17T06:21:09.374Z,35.60
2018-02-17T06:22:09.336Z,32.20
2018-02-17T06:23:09.353Z,30.00
2018-02-17T06:24:09.257Z,31.20
2018-02-17T06:25:09.206Z,34.80
2018-02-17T06:26:09.178Z,32.50
2018-02-17T06:27:09.123Z,27.60
2018-02-17T06:28:09.082Z,37.50
2018-02-17T06:29:09.041Z,27.70
2018-02-17T06:30:09.003Z,38.60
2018-02-17T06:31:08.988Z,29.40
2018-02-17T06:32:08.932Z,37.20
2018-02-17T06:33:08.879Z,29.70
2018-02-17T06:34:08.833Z,35.50
2018-02-17T06:35:08.803Z,27.90
2018-02-17T06:36:08.794Z,34.40
2018-02-17T06:37:08.714Z,30.30
2018-02-17T06:38:08.687Z,34.30
2018-02-17T06:39:08.627Z,31.10
2018-02-17T06:40:08.582Z,37.00
2018-02-17T06:41:08.589Z,30.40
2018-02-17T06:42:08.517Z,35.40
2018-02-17T06:43:08.483Z,32.40
2018-02-17T06:44:08.450Z,34.10
2018-02-17T06:45:08.373Z,28.20
2018-02-17T06:46:08.375Z,30.10
2018-02-17T06:47:08.293Z,37.70
2018-02-17T06:48:08.258Z,29.40
2018-02-17T06:49:08.218Z,32.20
2018-02-17T06:50:08.192Z,35.90
2018-02-17T06:51:08.176Z,34.50
2018-02-17T06:52:08.088Z,33.20
2018-02-17T06:53:08.049Z,29.30
2018-02-17T06:54:08.005Z,29.50
2018-02-17T06:55:07.970Z,36.10
2018-02-17T06:56:07.922Z,30.60
2018-02-17T06:57:07.878Z,30.40
2018-02-17T06:58:07.853Z,37.20
2018-02-17T06:59:07.861Z,33.30
2018-02-17T07:00:07.792Z,38.60
2018-02-17T07:01:07.834Z,36.30
2018-02-17T07:02:07.718Z,34.70
2018-02-17T07:03:07.649Z,29.10
2018-02-17T07:04:07.647Z,42.00
2018-02-17T07:05:07.560Z,37.50
2018-02-17T07:06:07.546Z,35.10
2018-02-17T07:07:07.485Z,30.90
2018-02-17T07:08:07.431Z,31.90
2018-02-17T07:09:07.389Z,30.90
2018-02-17T07:10:07.338Z,34.90
2018-02-17T07:11:07.330Z,32.40
2018-02-17T07:12:07.305Z,35.80
2018-02-17T07:13:07.280Z,27.70
2018-02-17T07:14:07.288Z,35.40
2018-02-17T07:15:07.131Z,27.20
2018-02-17T07:16:07.093Z,34.60
2018-02-17T07:17:07.052Z,24.50
2018-02-17T07:18:07.011Z,31.90
2018-02-17T07:19:06.968Z,34.30
2018-02-17T07:20:06.926Z,33.40
2018-02-17T07:21:06.886Z,33.20
2018-02-17T07:22:06.843Z,32.50
2018-02-17T07:23:06.805Z,34.20
2018-02-17T07:24:06.765Z,32.60
2018-02-17T07:25:06.723Z,34.90
2018-02-17T07:26:06.684Z,30.20
2018-02-17T07:27:06.639Z,32.30
2018-02-17T07:28:06.612Z,39.90
2018-02-17T07:29:06.556Z,37.40
2018-02-17T07:30:06.512Z,32.20
2018-02-17T07:31:06.478Z,28.60
2018-02-17T07:32:06.435Z,39.80
2018-02-17T07:33:06.392Z,37.60
2018-02-17T07:34:06.349Z,33.20
2018-02-17T07:35:06.311Z,34.50
2018-02-17T07:36:06.271Z,30.60
2018-02-17T07:37:06.226Z,33.00
2018-02-17T07:38:06.184Z,34.90
2018-02-17T07:39:06.143Z,37.70
2018-02-17T07:40:06.103Z,36.90
2018-02-17T07:41:06.065Z,34.30
2018-02-17T07:42:06.023Z,31.80
2018-02-17T07:43:05.981Z,37.20
2018-02-17T07:44:05.937Z,30.10
2018-02-17T07:45:05.901Z,34.20
2018-02-17T07:46:05.864Z,34.00
2018-02-17T07:47:05.814Z,30.10
2018-02-17T07:48:05.776Z,28.00
2018-02-17T07:49:05.737Z,33.80
2018-02-17T07:50:05.696Z,35.80
2018-02-17T07:51:05.655Z,29.70
2018-02-17T07:52:05.610Z,31.00
2018-02-17T07:53:05.570Z,29.80
2018-02-17T07:54:05.539Z,30.90
2018-02-17T07:55:05.488Z,29.30
2018-02-17T07:56:05.451Z,34.80
2018-02-17T07:57:05.410Z,36.40
2018-02-17T07:58:05.364Z,28.50
2018-02-17T07:59:05.322Z,28.70
2018-02-17T08:00:05.307Z,36.30
2018-02-17T08:01:05.241Z,33.10
2018-02-17T08:02:05.202Z,35.20
2018-02-17T08:03:05.161Z,38.60
2018-02-17T08:04:05.124Z,33.50
2018-02-17T08:05:05.086Z,39.90
2018-02-17T08:06:05.038Z,33.10
2018-02-17T08:07:04.998Z,30.50
2018-02-17T08:08:04.956Z,36.50
2018-02-17T08:09:04.918Z,37.60
2018-02-17T08:10:04.881Z,32.30
2018-02-17T08:11:04.835Z,35.60
2018-02-17T08:12:04.794Z,36.50
2018-02-17T08:13:04.757Z,31.40
2018-02-17T08:14:04.711Z,38.40
2018-02-17T08:15:04.671Z,33.10
2018-02-17T08:16:04.630Z,37.40
2018-02-17T08:17:04.596Z,34.10
2018-02-17T08:18:04.551Z,35.80
2018-02-17T08:19:04.514Z,33.90
2018-02-17T08:20:04.473Z,30.90
2018-02-17T08:21:04.428Z,33.80
2018-02-17T08:22:04.436Z,32.70
2018-02-17T08:23:04.372Z,34.30
2018-02-17T08:24:04.308Z,32.60
2018-02-17T08:25:04.266Z,34.90
2018-02-17T08:26:04.224Z,31.70
2018-02-17T08:27:04.183Z,30.00
2018-02-17T08:28:04.146Z,32.20
2018-02-17T08:29:04.113Z,35.00
2018-02-17T08:30:04.062Z,35.90
2018-02-17T08:31:04.031Z,32.30
2018-02-17T08:32:03.980Z,30.80
2018-02-17T08:33:03.945Z,31.90
2018-02-17T08:34:03.898Z,29.10
2018-02-17T08:35:03.864Z,32.70
2018-02-17T08:36:03.820Z,31.90
2018-02-17T08:37:03.790Z,31.50
2018-02-17T08:38:03.736Z,33.20
2018-02-17T08:39:03.726Z,31.20
2018-02-17T08:40:03.680Z,35.60
2018-02-17T08:41:03.614Z,36.70
2018-02-17T08:42:03.577Z,32.50
2018-02-17T08:43:03.532Z,32.60
2018-02-17T08:44:03.495Z,32.40
2018-02-17T08:45:03.457Z,35.40
2018-02-17T08:46:03.413Z,33.40
2018-02-17T08:47:03.372Z,32.70
2018-02-17T08:48:03.333Z,34.80
2018-02-17T08:49:03.298Z,29.50
2018-02-17T08:50:03.249Z,34.20
2018-02-17T08:51:03.221Z,33.10
2018-02-17T08:52:03.174Z,34.10
2018-02-17T08:53:03.128Z,38.50
2018-02-17T08:54:03.089Z,31.20
2018-02-17T08:55:03.048Z,31.30
2018-02-17T08:56:03.008Z,29.80
2018-02-17T08:57:02.969Z,28.90
2018-02-17T08:58:02.934Z,27.60
2018-02-17T08:59:02.887Z,29.30
2018-02-17T09:00:02.847Z,27.20
2018-02-17T09:01:02.807Z,40.40
2018-02-17T09:02:02.767Z,27.00
2018-02-17T09:03:02.730Z,31.30
2018-02-17T09:04:02.694Z,32.50
2018-02-17T09:05:02.649Z,30.50
2018-02-17T09:06:02.606Z,35.20
2018-02-17T09:07:02.571Z,34.30
2018-02-17T09:08:02.531Z,30.50
2018-02-17T09:09:02.503Z,29.70
2018-02-17T09:10:02.508Z,32.10
2018-02-17T09:11:02.415Z,26.30
2018-02-17T09:12:02.370Z,33.60
2018-02-17T09:13:02.330Z,29.90
2018-02-17T09:14:02.288Z,30.20
2018-02-17T09:15:02.248Z,32.90
2018-02-17T09:16:02.211Z,26.20
2018-02-17T09:17:02.174Z,32.80
2018-02-17T09:18:02.138Z,27.40
2018-02-17T09:19:02.091Z,28.50
2018-02-17T09:20:02.052Z,28.30
2018-02-17T09:21:02.010Z,29.70
2018-02-17T09:22:01.974Z,27.50
2018-02-17T09:23:01.948Z,29.50
2018-02-17T09:24:01.892Z,29.20
2018-02-17T09:25:01.856Z,31.70
2018-02-17T09:26:01.814Z,27.90
2018-02-17T09:27:01.775Z,26.80
2018-02-17T09:28:01.737Z,31.70
2018-02-17T09:29:01.697Z,26.00
2018-02-17T09:30:01.656Z,29.20
2018-02-17T09:31:01.616Z,28.90
2018-02-17T09:32:01.587Z,28.80
2018-02-17T09:33:01.539Z,31.10
2018-02-17T09:34:01.497Z,33.70
2018-02-17T09:35:01.463Z,32.60
2018-02-17T09:36:01.421Z,36.10
2018-02-17T09:37:01.381Z,30.80
2018-02-17T09:38:01.344Z,32.80
2018-02-17T09:39:01.303Z,33.00
2018-02-17T09:40:01.264Z,36.10
2018-02-17T09:41:01.232Z,35.70
2018-02-17T09:42:01.187Z,29.90
2018-02-17T09:43:01.148Z,30.20
2018-02-17T09:44:01.107Z,30.90
2018-02-17T09:45:01.073Z,31.20
2018-02-17T09:46:01.084Z,27.80
2018-02-17T09:47:00.994Z,26.60
2018-02-17T09:48:00.950Z,29.90
2018-02-17T09:49:00.914Z,32.70
2018-02-17T09:50:00.882Z,32.40
2018-02-17T09:51:00.834Z,30.70
2018-02-17T09:52:00.794Z,36.20
2018-02-17T09:53:00.756Z,27.30
2018-02-17T09:54:00.720Z,35.50
2018-02-17T09:55:00.678Z,29.40
2018-02-17T09:56:00.640Z,34.20
2018-02-17T09:57:00.641Z,28.50
2018-02-17T09:58:00.562Z,37.80
2018-02-17T09:59:00.522Z,32.10
2018-02-17T10:00:00.483Z,30.90
2018-02-17T10:01:00.450Z,27.40
2018-02-17T10:02:00.408Z,30.50
2018-02-17T10:03:00.371Z,31.80
2018-02-17T10:04:00.331Z,26.20
2018-02-17T10:05:00.291Z,32.90
2018-02-17T10:06:00.251Z,30.90
2018-02-17T10:07:00.212Z,27.30
2018-02-17T10:08:00.173Z,32.00
2018-02-17T10:09:00.144Z,30.00
2018-02-17T10:10:00.108Z,34.70
2018-02-17T10:11:00.058Z,28.60
2018-02-17T10:12:00.022Z,29.30
2018-02-17T10:12:59.984Z,28.40
2018-02-17T10:13:59.944Z,31.10
2018-02-17T10:14:59.907Z,26.80
2018-02-17T10:15:59.875Z,27.70
2018-02-17T10:16:59.834Z,25.50
2018-02-17T10:17:59.790Z,30.20
2018-02-17T10:18:59.752Z,24.40
2018-02-17T10:19:59.717Z,24.70
2018-02-17T10:20:59.680Z,24.70
2018-02-17T10:21:59.642Z,25.40
2018-02-17T10:22:59.607Z,29.40
2018-02-17T10:23:59.565Z,27.50
2018-02-17T10:24:59.528Z,23.80
2018-02-17T10:25:59.490Z,25.00
2018-02-17T10:26:59.455Z,24.80
2018-02-17T10:27:59.422Z,28.70
2018-02-17T10:28:59.379Z,29.00
2018-02-17T10:29:59.351Z,23.80
2018-02-17T10:30:59.304Z,27.30
2018-02-17T10:31:59.265Z,29.10
2018-02-17T10:32:59.228Z,23.00
2018-02-17T10:33:59.189Z,26.00
2018-02-17T10:34:59.156Z,22.50
2018-02-17T10:35:59.115Z,27.10
2018-02-17T10:36:59.079Z,24.70
2018-02-17T10:37:59.041Z,23.30
2018-02-17T10:38:59.004Z,26.20
2018-02-17T10:39:58.981Z,24.30
2018-02-17T10:40:58.932Z,28.90
2018-02-17T10:41:58.893Z,23.40
2018-02-17T10:42:58.857Z,26.10
2018-02-17T10:43:58.821Z,30.80
2018-02-17T10:44:58.787Z,24.80
2018-02-17T10:45:58.747Z,34.20
2018-02-17T10:46:58.713Z,27.50
2018-02-17T10:47:58.677Z,25.50
2018-02-17T10:48:58.651Z,25.20
2018-02-17T10:49:58.604Z,25.80
2018-02-17T10:50:58.568Z,28.20
2018-02-17T10:51:58.537Z,29.80
2018-02-17T10:52:58.504Z,24.80
2018-02-17T10:53:58.466Z,30.60
2018-02-17T10:54:58.434Z,24.10
2018-02-17T10:55:58.401Z,31.50
2018-02-17T10:56:58.362Z,26.50
2018-02-17T10:57:58.355Z,25.80
2018-02-17T10:58:58.290Z,30.30
2018-02-17T10:59:58.256Z,27.00
2018-02-17T11:00:58.225Z,31.30
2018-02-17T11:01:58.215Z,21.60
2018-02-17T11:02:58.150Z,27.50
2018-02-17T11:03:58.118Z,26.70
2018-02-17T11:04:58.098Z,25.00
2018-02-17T11:05:58.048Z,30.30
2018-02-17T11:06:58.017Z,25.10
2018-02-17T11:07:57.977Z,26.00
2018-02-17T11:08:57.946Z,29.50
2018-02-17T11:09:57.910Z,24.50
2018-02-17T11:10:57.878Z,23.80
2018-02-17T11:11:57.846Z,25.90
2018-02-17T11:12:57.806Z,29.00
2018-02-17T11:13:57.776Z,25.60
2018-02-17T11:14:57.742Z,28.30
2018-02-17T11:15:57.707Z,24.90
2018-02-17T11:16:57.673Z,30.90
2018-02-17T11:17:57.645Z,29.80
2018-02-17T11:18:57.607Z,25.20
2018-02-17T11:19:57.569Z,29.70
2018-02-17T11:20:57.538Z,29.70
2018-02-17T11:21:57.508Z,24.60
2018-02-17T11:22:57.528Z,28.30
2018-02-17T11:23:57.438Z,28.60
2018-02-17T11:24:57.408Z,25.90
2018-02-17T11:25:57.372Z,24.70
2018-02-17T11:26:57.346Z,36.10
2018-02-17T11:27:57.312Z,31.00
2018-02-17T11:28:57.280Z,27.50
2018-02-17T11:29:57.244Z,22.40
2018-02-17T11:30:57.211Z,23.20
2018-02-17T11:31:57.181Z,26.30
2018-02-17T11:32:57.158Z,30.30
2018-02-17T11:33:57.152Z,25.50
2018-02-17T11:34:57.085Z,27.10
2018-02-17T11:35:57.050Z,29.80
2018-02-17T11:36:57.055Z,30.90
2018-02-17T11:37:56.991Z,28.20
2018-02-17T11:38:56.968Z,32.10
2018-02-17T11:39:56.927Z,28.50
2018-02-17T11:40:56.890Z,26.60
2018-02-17T11:41:56.874Z,27.00
2018-02-17T11:42:56.852Z,28.40
2018-02-17T11:43:56.797Z,25.30
2018-02-17T11:44:56.767Z,29.80
2018-02-17T11:45:56.736Z,28.50
2018-02-17T11:46:56.703Z,28.10
2018-02-17T11:47:56.671Z,25.80
2018-02-17T11:48:56.645Z,30.40
2018-02-17T11:49:56.665Z,24.70
2018-02-17T11:50:56.627Z,25.90
2018-02-17T11:51:56.559Z,28.90
2018-02-17T11:52:56.532Z,24.60
2018-02-17T11:53:56.488Z,24.40
2018-02-17T11:54:56.463Z,23.60
2018-02-17T11:55:56.435Z,24.10
2018-02-17T11:56:56.405Z,24.40
2018-02-17T11:57:56.408Z,23.00
2018-02-17T11:58:56.346Z,27.20
2018-02-17T11:59:56.328Z,25.50
2018-02-17T12:00:56.301Z,24.70
2018-02-17T12:01:56.265Z,29.80
2018-02-17T12:02:56.234Z,22.30
2018-02-17T12:03:56.208Z,23.70
2018-02-17T12:04:56.184Z,30.20
2018-02-17T12:05:56.158Z,26.00
2018-02-17T12:06:56.132Z,24.50
2018-02-17T12:07:56.111Z,28.00
2018-02-17T12:08:56.141Z,28.60
2018-02-17T12:09:56.326Z,23.60
2018-02-17T12:10:56.039Z,28.60
2018-02-17T12:11:56.013Z,22.80
2018-02-17T12:12:55.993Z,22.10
2018-02-17T12:13:55.966Z,30.90
2018-02-17T12:14:55.948Z,22.50
2018-02-17T12:15:55.919Z,29.80
2018-02-17T12:16:55.939Z,23.00
2018-02-17T12:17:55.876Z,26.90
2018-02-17T12:18:55.855Z,23.80
2018-02-17T12:19:55.837Z,23.50
2018-02-17T12:20:55.807Z,21.60
2018-02-17T12:21:55.785Z,22.50
2018-02-17T12:22:55.761Z,22.70
2018-02-17T12:23:55.757Z,24.60
2018-02-17T12:24:55.713Z,22.10
2018-02-17T12:25:55.690Z,25.10
2018-02-17T12:26:55.665Z,23.90
2018-02-17T12:27:55.638Z,28.10
2018-02-17T12:28:55.615Z,25.50
2018-02-17T12:29:55.588Z,27.20
2018-02-17T12:30:55.562Z,24.00
2018-02-17T12:31:55.534Z,23.60
2018-02-17T12:32:55.503Z,28.20
2018-02-17T12:33:55.476Z,30.70
2018-02-17T12:34:55.447Z,25.40
2018-02-17T12:35:55.422Z,26.20
2018-02-17T12:36:55.391Z,25.90
2018-02-17T12:37:55.415Z,23.10
2018-02-17T12:38:55.330Z,27.30
2018-02-17T12:39:55.336Z,23.90
2018-02-17T12:40:55.274Z,28.40
2018-02-17T12:41:55.253Z,26.40
2018-02-17T12:42:55.211Z,27.10
2018-02-17T12:43:55.186Z,28.10
2018-02-17T12:44:55.159Z,28.10
2018-02-17T12:45:55.127Z,25.50
2018-02-17T12:46:55.097Z,28.20
2018-02-17T12:47:55.062Z,27.60
2018-02-17T12:48:55.035Z,28.50
2018-02-17T12:49:55.027Z,26.60
2018-02-17T12:50:54.993Z,25.40
2018-02-17T12:51:54.945Z,25.80